sensor_id;sensor_type;location;lat;lon;timestamp;P1;durP1;ratioP1;P2;durP2;ratioP2
3004;SDS011;1512;51.486;6.610;2022-08-02T00:02:46;5.03;;;3.90;;
3004;SDS011;1512;51.486;6.610;2022-08-02T00:06:55;6.00;;;4.50;;
3004;SDS011;1512;51.486;6.610;2022-08-02T00:11:04;6.17;;;4.17;;
3004;SDS011;1512;51.486;6.610;2022-08-02T00:15:13;5.43;;;3.80;;
3004;SDS011;1512;51.486;6.610;2022-08-02T00:19:23;5.87;;;5.37;;
3004;SDS011;1512;51.486;6.610;2022-08-02T00:23:31;3.87;;;3.47;;
3004;SDS011;1512;51.486;6.610;2022-08-02T00:32:10;5.30;;;4.40;;
3004;SDS011;1512;51.486;6.610;2022-08-02T00:36:19;4.50;;;4.10;;
3004;SDS011;1512;51.486;6.610;2022-08-02T00:40:28;4.90;;;4.20;;
3004;SDS011;1512;51.486;6.610;2022-08-02T00:44:36;4.03;;;3.63;;
3004;SDS011;1512;51.486;6.610;2022-08-02T00:48:45;4.70;;;4.27;;
3004;SDS011;1512;51.486;6.610;2022-08-02T00:52:56;8.80;;;3.73;;
3004;SDS011;1512;51.486;6.610;2022-08-02T00:57:05;3.77;;;3.47;;
3004;SDS011;1512;51.486;6.610;2022-08-02T01:01:14;5.63;;;4.10;;
3004;SDS011;1512;51.486;6.610;2022-08-02T01:05:23;6.30;;;4.10;;
3004;SDS011;1512;51.486;6.610;2022-08-02T01:09:32;6.83;;;4.07;;
3004;SDS011;1512;51.486;6.610;2022-08-02T01:18:14;4.47;;;4.07;;
3004;SDS011;1512;51.486;6.610;2022-08-02T01:31:25;4.93;;;3.87;;
3004;SDS011;1512;51.486;6.610;2022-08-02T01:35:41;4.43;;;4.00;;
3004;SDS011;1512;51.486;6.610;2022-08-02T01:39:57;6.30;;;3.63;;
3004;SDS011;1512;51.486;6.610;2022-08-02T01:44:06;4.93;;;4.40;;
3004;SDS011;1512;51.486;6.610;2022-08-02T01:48:18;3.80;;;3.50;;
3004;SDS011;1512;51.486;6.610;2022-08-02T01:52:31;9.40;;;4.13;;
3004;SDS011;1512;51.486;6.610;2022-08-02T01:56:42;3.67;;;3.37;;
3004;SDS011;1512;51.486;6.610;2022-08-02T02:00:52;7.10;;;3.87;;
3004;SDS011;1512;51.486;6.610;2022-08-02T02:05:03;5.53;;;4.33;;
3004;SDS011;1512;51.486;6.610;2022-08-02T02:13:44;6.90;;;4.73;;
3004;SDS011;1512;51.486;6.610;2022-08-02T02:17:55;4.10;;;3.50;;
3004;SDS011;1512;51.486;6.610;2022-08-02T02:22:07;5.50;;;4.93;;
3004;SDS011;1512;51.486;6.610;2022-08-02T02:26:17;4.53;;;3.90;;
3004;SDS011;1512;51.486;6.610;2022-08-02T02:30:29;6.23;;;3.83;;
3004;SDS011;1512;51.486;6.610;2022-08-02T02:34:40;5.37;;;4.80;;
3004;SDS011;1512;51.486;6.610;2022-08-02T02:38:51;4.47;;;4.03;;
3004;SDS011;1512;51.486;6.610;2022-08-02T02:43:01;8.30;;;4.73;;
3004;SDS011;1512;51.486;6.610;2022-08-02T02:47:10;4.67;;;3.93;;
3004;SDS011;1512;51.486;6.610;2022-08-02T02:51:22;4.47;;;4.07;;
3004;SDS011;1512;51.486;6.610;2022-08-02T02:55:31;5.37;;;4.40;;
3004;SDS011;1512;51.486;6.610;2022-08-02T02:59:40;5.70;;;4.63;;
3004;SDS011;1512;51.486;6.610;2022-08-02T03:03:52;6.30;;;4.17;;
3004;SDS011;1512;51.486;6.610;2022-08-02T03:12:30;4.73;;;4.20;;
3004;SDS011;1512;51.486;6.610;2022-08-02T03:16:41;4.53;;;3.40;;
3004;SDS011;1512;51.486;6.610;2022-08-02T03:25:35;4.90;;;3.93;;
3004;SDS011;1512;51.486;6.610;2022-08-02T03:29:45;6.10;;;4.00;;
3004;SDS011;1512;51.486;6.610;2022-08-02T03:34:03;4.07;;;3.63;;
3004;SDS011;1512;51.486;6.610;2022-08-02T03:38:23;3.63;;;3.33;;
3004;SDS011;1512;51.486;6.610;2022-08-02T03:42:49;3.90;;;3.47;;
3004;SDS011;1512;51.486;6.610;2022-08-02T03:47:08;5.60;;;4.00;;
3004;SDS011;1512;51.486;6.610;2022-08-02T03:51:34;6.03;;;4.10;;
3004;SDS011;1512;51.486;6.610;2022-08-02T03:56:11;4.00;;;3.60;;
3004;SDS011;1512;51.486;6.610;2022-08-02T04:00:41;5.67;;;4.50;;
3004;SDS011;1512;51.486;6.610;2022-08-02T04:09:46;5.17;;;4.20;;
3004;SDS011;1512;51.486;6.610;2022-08-02T04:14:18;6.30;;;3.73;;
3004;SDS011;1512;51.486;6.610;2022-08-02T04:18:53;4.33;;;3.93;;
3004;SDS011;1512;51.486;6.610;2022-08-02T04:23:20;4.70;;;4.20;;
3004;SDS011;1512;51.486;6.610;2022-08-02T04:27:54;5.67;;;4.97;;
3004;SDS011;1512;51.486;6.610;2022-08-02T04:32:16;6.10;;;4.17;;
3004;SDS011;1512;51.486;6.610;2022-08-02T04:36:37;5.33;;;4.53;;
3004;SDS011;1512;51.486;6.610;2022-08-02T04:41:11;5.63;;;4.13;;
3004;SDS011;1512;51.486;6.610;2022-08-02T04:45:29;5.47;;;4.60;;
3004;SDS011;1512;51.486;6.610;2022-08-02T04:54:44;5.80;;;4.57;;
3004;SDS011;1512;51.486;6.610;2022-08-02T04:59:07;5.87;;;4.57;;
3004;SDS011;1512;51.486;6.610;2022-08-02T05:03:32;6.50;;;4.90;;
3004;SDS011;1512;51.486;6.610;2022-08-02T05:08:03;8.00;;;4.20;;
3004;SDS011;1512;51.486;6.610;2022-08-02T05:12:32;4.13;;;3.73;;
3004;SDS011;1512;51.486;6.610;2022-08-02T05:16:55;5.40;;;4.93;;
3004;SDS011;1512;51.486;6.610;2022-08-02T05:21:19;7.00;;;5.33;;
3004;SDS011;1512;51.486;6.610;2022-08-02T05:25:42;5.90;;;5.30;;
3004;SDS011;1512;51.486;6.610;2022-08-02T05:30:08;4.97;;;4.47;;
3004;SDS011;1512;51.486;6.610;2022-08-02T05:34:23;9.97;;;6.07;;
3004;SDS011;1512;51.486;6.610;2022-08-02T05:38:56;6.37;;;4.90;;
3004;SDS011;1512;51.486;6.610;2022-08-02T05:43:11;5.83;;;5.03;;
3004;SDS011;1512;51.486;6.610;2022-08-02T05:47:34;5.80;;;4.80;;
3004;SDS011;1512;51.486;6.610;2022-08-02T06:00:58;12.17;;;6.77;;
3004;SDS011;1512;51.486;6.610;2022-08-02T06:13:59;10.40;;;8.77;;
3004;SDS011;1512;51.486;6.610;2022-08-02T06:18:27;10.97;;;7.67;;
3004;SDS011;1512;51.486;6.610;2022-08-02T06:22:51;20.20;;;9.30;;
3004;SDS011;1512;51.486;6.610;2022-08-02T06:27:08;11.17;;;9.37;;
3004;SDS011;1512;51.486;6.610;2022-08-02T06:31:26;12.30;;;8.33;;
3004;SDS011;1512;51.486;6.610;2022-08-02T06:36:07;12.57;;;10.30;;
3004;SDS011;1512;51.486;6.610;2022-08-02T06:40:29;12.10;;;7.80;;
3004;SDS011;1512;51.486;6.610;2022-08-02T06:44:48;15.17;;;8.97;;
3004;SDS011;1512;51.486;6.610;2022-08-02T06:49:06;12.93;;;9.13;;
3004;SDS011;1512;51.486;6.610;2022-08-02T06:53:23;11.30;;;9.13;;
3004;SDS011;1512;51.486;6.610;2022-08-02T06:57:46;16.37;;;9.30;;
3004;SDS011;1512;51.486;6.610;2022-08-02T07:01:59;12.30;;;9.40;;
3004;SDS011;1512;51.486;6.610;2022-08-02T07:06:16;14.80;;;9.30;;
3004;SDS011;1512;51.486;6.610;2022-08-02T07:10:30;13.23;;;10.03;;
3004;SDS011;1512;51.486;6.610;2022-08-02T07:14:48;11.40;;;9.10;;
3004;SDS011;1512;51.486;6.610;2022-08-02T07:19:04;9.40;;;8.43;;
3004;SDS011;1512;51.486;6.610;2022-08-02T07:23:36;10.43;;;8.77;;
3004;SDS011;1512;51.486;6.610;2022-08-02T07:27:53;11.50;;;7.53;;
3004;SDS011;1512;51.486;6.610;2022-08-02T07:32:31;11.77;;;7.33;;
3004;SDS011;1512;51.486;6.610;2022-08-02T07:36:35;10.70;;;7.07;;
3004;SDS011;1512;51.486;6.610;2022-08-02T07:41:02;8.67;;;7.50;;
3004;SDS011;1512;51.486;6.610;2022-08-02T07:45:13;8.77;;;6.87;;
3004;SDS011;1512;51.486;6.610;2022-08-02T07:49:44;10.90;;;5.80;;
3004;SDS011;1512;51.486;6.610;2022-08-02T07:53:55;9.13;;;5.97;;
3004;SDS011;1512;51.486;6.610;2022-08-02T07:58:14;6.90;;;5.70;;
3004;SDS011;1512;51.486;6.610;2022-08-02T08:02:52;6.80;;;5.67;;
3004;SDS011;1512;51.486;6.610;2022-08-02T08:07:23;6.63;;;5.63;;
3004;SDS011;1512;51.486;6.610;2022-08-02T08:11:37;5.60;;;5.00;;
3004;SDS011;1512;51.486;6.610;2022-08-02T08:15:58;5.33;;;4.83;;
3004;SDS011;1512;51.486;6.610;2022-08-02T08:20:26;8.73;;;5.70;;
3004;SDS011;1512;51.486;6.610;2022-08-02T08:24:52;7.07;;;5.33;;
3004;SDS011;1512;51.486;6.610;2022-08-02T08:29:15;6.60;;;4.60;;
3004;SDS011;1512;51.486;6.610;2022-08-02T08:33:55;4.87;;;4.37;;
3004;SDS011;1512;51.486;6.610;2022-08-02T08:38:10;7.63;;;5.57;;
3004;SDS011;1512;51.486;6.610;2022-08-02T08:42:41;5.03;;;4.53;;
3004;SDS011;1512;51.486;6.610;2022-08-02T08:46:57;5.73;;;5.13;;
3004;SDS011;1512;51.486;6.610;2022-08-02T08:51:20;8.20;;;5.30;;
3004;SDS011;1512;51.486;6.610;2022-08-02T08:55:59;6.57;;;5.90;;
3004;SDS011;1512;51.486;6.610;2022-08-02T09:00:24;5.30;;;4.73;;
3004;SDS011;1512;51.486;6.610;2022-08-02T09:05:04;6.77;;;6.07;;
3004;SDS011;1512;51.486;6.610;2022-08-02T09:09:32;6.63;;;6.00;;
3004;SDS011;1512;51.486;6.610;2022-08-02T09:14:05;5.73;;;5.23;;
3004;SDS011;1512;51.486;6.610;2022-08-02T09:18:35;5.80;;;4.80;;
3004;SDS011;1512;51.486;6.610;2022-08-02T09:23:08;5.80;;;5.17;;
3004;SDS011;1512;51.486;6.610;2022-08-02T09:32:01;6.30;;;5.00;;
3004;SDS011;1512;51.486;6.610;2022-08-02T09:36:26;4.72;;;4.33;;
3004;SDS011;1512;51.486;6.610;2022-08-02T09:40:51;5.43;;;4.37;;
3004;SDS011;1512;51.486;6.610;2022-08-02T09:45:19;5.97;;;4.10;;
3004;SDS011;1512;51.486;6.610;2022-08-02T09:49:48;4.73;;;4.00;;
3004;SDS011;1512;51.486;6.610;2022-08-02T09:54:20;4.60;;;4.20;;
3004;SDS011;1512;51.486;6.610;2022-08-02T09:58:39;4.90;;;4.50;;
3004;SDS011;1512;51.486;6.610;2022-08-02T10:03:09;5.13;;;4.67;;
3004;SDS011;1512;51.486;6.610;2022-08-02T10:07:46;4.80;;;4.30;;
3004;SDS011;1512;51.486;6.610;2022-08-02T10:12:12;4.40;;;3.87;;
3004;SDS011;1512;51.486;6.610;2022-08-02T10:16:38;3.83;;;3.50;;
3004;SDS011;1512;51.486;6.610;2022-08-02T10:20:59;5.07;;;4.50;;
3004;SDS011;1512;51.486;6.610;2022-08-02T10:25:19;4.55;;;4.15;;
3004;SDS011;1512;51.486;6.610;2022-08-02T10:29:34;10.17;;;4.43;;
3004;SDS011;1512;51.486;6.610;2022-08-02T10:33:47;4.97;;;4.53;;
3004;SDS011;1512;51.486;6.610;2022-08-02T10:38:04;4.90;;;4.40;;
3004;SDS011;1512;51.486;6.610;2022-08-02T10:51:54;4.20;;;3.90;;
3004;SDS011;1512;51.486;6.610;2022-08-02T10:56:44;4.13;;;3.73;;
3004;SDS011;1512;51.486;6.610;2022-08-02T11:01:29;3.73;;;3.43;;
3004;SDS011;1512;51.486;6.610;2022-08-02T11:06:02;4.17;;;3.70;;
3004;SDS011;1512;51.486;6.610;2022-08-02T11:10:46;6.08;;;3.80;;
3004;SDS011;1512;51.486;6.610;2022-08-02T11:15:05;4.80;;;4.17;;
3004;SDS011;1512;51.486;6.610;2022-08-02T11:24:31;4.57;;;3.70;;
3004;SDS011;1512;51.486;6.610;2022-08-02T11:28:48;4.10;;;3.23;;
3004;SDS011;1512;51.486;6.610;2022-08-02T11:33:12;4.13;;;3.53;;
3004;SDS011;1512;51.486;6.610;2022-08-02T11:37:38;4.73;;;3.90;;
3004;SDS011;1512;51.486;6.610;2022-08-02T11:42:04;4.13;;;3.60;;
3004;SDS011;1512;51.486;6.610;2022-08-02T11:46:22;9.43;;;3.77;;
3004;SDS011;1512;51.486;6.610;2022-08-02T11:50:48;3.93;;;3.63;;
3004;SDS011;1512;51.486;6.610;2022-08-02T11:55:09;4.57;;;3.20;;
3004;SDS011;1512;51.486;6.610;2022-08-02T11:59:31;3.80;;;3.13;;
3004;SDS011;1512;51.486;6.610;2022-08-02T12:03:43;3.97;;;3.40;;
3004;SDS011;1512;51.486;6.610;2022-08-02T12:08:06;3.67;;;3.37;;
3004;SDS011;1512;51.486;6.610;2022-08-02T12:12:24;3.20;;;2.90;;
3004;SDS011;1512;51.486;6.610;2022-08-02T12:16:39;3.40;;;3.10;;
3004;SDS011;1512;51.486;6.610;2022-08-02T12:21:21;3.57;;;3.23;;
3004;SDS011;1512;51.486;6.610;2022-08-02T12:25:36;3.47;;;3.17;;
3004;SDS011;1512;51.486;6.610;2022-08-02T12:29:57;5.53;;;3.70;;
3004;SDS011;1512;51.486;6.610;2022-08-02T12:34:12;4.20;;;3.23;;
3004;SDS011;1512;51.486;6.610;2022-08-02T12:38:29;3.70;;;3.30;;
3004;SDS011;1512;51.486;6.610;2022-08-02T12:42:45;3.87;;;3.53;;
3004;SDS011;1512;51.486;6.610;2022-08-02T12:47:11;3.43;;;2.80;;
3004;SDS011;1512;51.486;6.610;2022-08-02T12:51:29;3.13;;;2.90;;
3004;SDS011;1512;51.486;6.610;2022-08-02T12:55:56;3.30;;;3.00;;
3004;SDS011;1512;51.486;6.610;2022-08-02T13:00:12;3.50;;;3.20;;
3004;SDS011;1512;51.486;6.610;2022-08-02T13:04:29;4.73;;;3.10;;
3004;SDS011;1512;51.486;6.610;2022-08-02T13:08:48;3.77;;;3.40;;
3004;SDS011;1512;51.486;6.610;2022-08-02T13:13:15;3.50;;;3.20;;
3004;SDS011;1512;51.486;6.610;2022-08-02T13:17:33;6.70;;;3.20;;
3004;SDS011;1512;51.486;6.610;2022-08-02T13:21:49;3.43;;;3.13;;
3004;SDS011;1512;51.486;6.610;2022-08-02T13:26:12;3.37;;;3.07;;
3004;SDS011;1512;51.486;6.610;2022-08-02T13:30:52;6.40;;;3.60;;
3004;SDS011;1512;51.486;6.610;2022-08-02T13:35:13;3.40;;;3.10;;
3004;SDS011;1512;51.486;6.610;2022-08-02T13:39:41;4.10;;;3.70;;
3004;SDS011;1512;51.486;6.610;2022-08-02T13:43:58;3.10;;;2.90;;
3004;SDS011;1512;51.486;6.610;2022-08-02T13:48:16;3.40;;;3.10;;
3004;SDS011;1512;51.486;6.610;2022-08-02T13:52:46;8.10;;;3.83;;
3004;SDS011;1512;51.486;6.610;2022-08-02T13:57:20;3.27;;;2.97;;
3004;SDS011;1512;51.486;6.610;2022-08-02T14:01:43;4.10;;;3.30;;
3004;SDS011;1512;51.486;6.610;2022-08-02T14:06:19;4.03;;;3.63;;
3004;SDS011;1512;51.486;6.610;2022-08-02T14:10:37;3.60;;;3.13;;
3004;SDS011;1512;51.486;6.610;2022-08-02T14:15:02;3.53;;;3.23;;
3004;SDS011;1512;51.486;6.610;2022-08-02T14:19:25;2.87;;;2.67;;
3004;SDS011;1512;51.486;6.610;2022-08-02T14:23:41;3.40;;;2.90;;
3004;SDS011;1512;51.486;6.610;2022-08-02T14:28:02;3.63;;;3.33;;
3004;SDS011;1512;51.486;6.610;2022-08-02T14:32:52;3.67;;;3.00;;
3004;SDS011;1512;51.486;6.610;2022-08-02T14:37:13;3.13;;;2.83;;
3004;SDS011;1512;51.486;6.610;2022-08-02T14:41:28;4.30;;;3.20;;
3004;SDS011;1512;51.486;6.610;2022-08-02T14:45:50;3.47;;;3.13;;
3004;SDS011;1512;51.486;6.610;2022-08-02T14:50:10;3.00;;;2.77;;
3004;SDS011;1512;51.486;6.610;2022-08-02T14:58:51;3.43;;;3.00;;
3004;SDS011;1512;51.486;6.610;2022-08-02T15:03:08;2.97;;;2.67;;
3004;SDS011;1512;51.486;6.610;2022-08-02T15:11:47;2.77;;;2.57;;
3004;SDS011;1512;51.486;6.610;2022-08-02T15:20:25;3.53;;;3.10;;
3004;SDS011;1512;51.486;6.610;2022-08-02T15:24:34;3.07;;;2.77;;
3004;SDS011;1512;51.486;6.610;2022-08-02T15:28:42;2.90;;;2.50;;
3004;SDS011;1512;51.486;6.610;2022-08-02T15:32:51;2.80;;;2.60;;
3004;SDS011;1512;51.486;6.610;2022-08-02T15:37:00;2.90;;;2.60;;
3004;SDS011;1512;51.486;6.610;2022-08-02T15:41:09;2.60;;;2.40;;
3004;SDS011;1512;51.486;6.610;2022-08-02T15:45:18;3.67;;;3.20;;
3004;SDS011;1512;51.486;6.610;2022-08-02T15:49:27;4.03;;;3.73;;
3004;SDS011;1512;51.486;6.610;2022-08-02T15:53:35;2.20;;;2.00;;
3004;SDS011;1512;51.486;6.610;2022-08-02T15:57:44;3.00;;;2.53;;
3004;SDS011;1512;51.486;6.610;2022-08-02T16:01:52;3.10;;;2.80;;
3004;SDS011;1512;51.486;6.610;2022-08-02T16:06:02;2.67;;;2.40;;
3004;SDS011;1512;51.486;6.610;2022-08-02T16:10:10;2.83;;;2.60;;
3004;SDS011;1512;51.486;6.610;2022-08-02T16:14:19;2.70;;;2.50;;
3004;SDS011;1512;51.486;6.610;2022-08-02T16:18:28;2.77;;;2.47;;
3004;SDS011;1512;51.486;6.610;2022-08-02T16:22:38;3.37;;;2.90;;
3004;SDS011;1512;51.486;6.610;2022-08-02T16:26:46;2.77;;;2.57;;
3004;SDS011;1512;51.486;6.610;2022-08-02T16:30:55;2.53;;;2.33;;
3004;SDS011;1512;51.486;6.610;2022-08-02T16:35:06;2.53;;;2.33;;
3004;SDS011;1512;51.486;6.610;2022-08-02T16:39:15;3.20;;;2.57;;
3004;SDS011;1512;51.486;6.610;2022-08-02T16:43:23;4.20;;;2.10;;
3004;SDS011;1512;51.486;6.610;2022-08-02T16:47:33;3.13;;;2.90;;
3004;SDS011;1512;51.486;6.610;2022-08-02T16:51:44;6.20;;;2.90;;
3004;SDS011;1512;51.486;6.610;2022-08-02T16:55:52;2.67;;;2.43;;
3004;SDS011;1512;51.486;6.610;2022-08-02T17:00:03;2.60;;;2.40;;
3004;SDS011;1512;51.486;6.610;2022-08-02T17:04:12;2.37;;;2.17;;
3004;SDS011;1512;51.486;6.610;2022-08-02T17:08:21;2.57;;;2.27;;
3004;SDS011;1512;51.486;6.610;2022-08-02T17:12:32;3.30;;;3.00;;
3004;SDS011;1512;51.486;6.610;2022-08-02T17:16:41;3.47;;;3.17;;
3004;SDS011;1512;51.486;6.610;2022-08-02T17:20:50;2.70;;;2.50;;
3004;SDS011;1512;51.486;6.610;2022-08-02T17:24:58;2.63;;;2.43;;
3004;SDS011;1512;51.486;6.610;2022-08-02T17:29:09;3.60;;;2.27;;
3004;SDS011;1512;51.486;6.610;2022-08-02T17:37:47;2.60;;;2.40;;
3004;SDS011;1512;51.486;6.610;2022-08-02T17:46:38;2.53;;;2.33;;
3004;SDS011;1512;51.486;6.610;2022-08-02T17:50:47;3.37;;;2.40;;
3004;SDS011;1512;51.486;6.610;2022-08-02T17:54:57;3.10;;;2.80;;
3004;SDS011;1512;51.486;6.610;2022-08-02T17:59:12;2.63;;;2.43;;
3004;SDS011;1512;51.486;6.610;2022-08-02T18:03:25;3.17;;;2.70;;
3004;SDS011;1512;51.486;6.610;2022-08-02T18:07:35;3.03;;;2.70;;
3004;SDS011;1512;51.486;6.610;2022-08-02T18:11:46;3.10;;;2.80;;
3004;SDS011;1512;51.486;6.610;2022-08-02T18:15:56;3.33;;;2.60;;
3004;SDS011;1512;51.486;6.610;2022-08-02T18:20:05;3.27;;;2.97;;
3004;SDS011;1512;51.486;6.610;2022-08-02T18:24:16;3.70;;;2.50;;
3004;SDS011;1512;51.486;6.610;2022-08-02T18:28:28;2.67;;;2.37;;
3004;SDS011;1512;51.486;6.610;2022-08-02T18:32:37;3.00;;;2.60;;
3004;SDS011;1512;51.486;6.610;2022-08-02T18:36:47;6.93;;;2.30;;
3004;SDS011;1512;51.486;6.610;2022-08-02T18:40:56;2.73;;;2.50;;
3004;SDS011;1512;51.486;6.610;2022-08-02T18:45:06;2.50;;;2.30;;
3004;SDS011;1512;51.486;6.610;2022-08-02T18:49:17;4.20;;;2.70;;
3004;SDS011;1512;51.486;6.610;2022-08-02T18:53:27;2.77;;;2.57;;
3004;SDS011;1512;51.486;6.610;2022-08-02T18:57:37;3.00;;;2.70;;
3004;SDS011;1512;51.486;6.610;2022-08-02T19:01:49;3.10;;;2.60;;
3004;SDS011;1512;51.486;6.610;2022-08-02T19:05:58;3.03;;;2.73;;
3004;SDS011;1512;51.486;6.610;2022-08-02T19:10:06;2.70;;;2.50;;
3004;SDS011;1512;51.486;6.610;2022-08-02T19:14:17;2.87;;;2.43;;
3004;SDS011;1512;51.486;6.610;2022-08-02T19:18:28;3.30;;;2.53;;
3004;SDS011;1512;51.486;6.610;2022-08-02T19:22:38;3.30;;;3.00;;
3004;SDS011;1512;51.486;6.610;2022-08-02T19:26:47;3.13;;;2.70;;
3004;SDS011;1512;51.486;6.610;2022-08-02T19:30:57;2.97;;;2.67;;
3004;SDS011;1512;51.486;6.610;2022-08-02T19:35:06;3.03;;;2.73;;
3004;SDS011;1512;51.486;6.610;2022-08-02T19:39:20;2.90;;;2.60;;
3004;SDS011;1512;51.486;6.610;2022-08-02T19:43:31;3.87;;;3.00;;
3004;SDS011;1512;51.486;6.610;2022-08-02T19:47:41;3.07;;;2.57;;
3004;SDS011;1512;51.486;6.610;2022-08-02T19:51:51;2.93;;;2.63;;
3004;SDS011;1512;51.486;6.610;2022-08-02T19:56:01;3.80;;;2.83;;
3004;SDS011;1512;51.486;6.610;2022-08-02T20:00:11;3.13;;;2.60;;
3004;SDS011;1512;51.486;6.610;2022-08-02T20:04:22;3.50;;;2.90;;
3004;SDS011;1512;51.486;6.610;2022-08-02T20:08:32;2.90;;;2.60;;
3004;SDS011;1512;51.486;6.610;2022-08-02T20:12:43;7.20;;;2.97;;
3004;SDS011;1512;51.486;6.610;2022-08-02T20:16:51;5.33;;;3.00;;
3004;SDS011;1512;51.486;6.610;2022-08-02T20:21:00;3.83;;;3.43;;
3004;SDS011;1512;51.486;6.610;2022-08-02T20:25:09;3.97;;;3.53;;
3004;SDS011;1512;51.486;6.610;2022-08-02T20:29:19;4.70;;;2.77;;
3004;SDS011;1512;51.486;6.610;2022-08-02T20:33:29;4.43;;;2.67;;
3004;SDS011;1512;51.486;6.610;2022-08-02T20:37:38;3.40;;;3.07;;
3004;SDS011;1512;51.486;6.610;2022-08-02T20:41:48;3.93;;;3.00;;
3004;SDS011;1512;51.486;6.610;2022-08-02T20:45:59;2.90;;;2.70;;
3004;SDS011;1512;51.486;6.610;2022-08-02T20:50:08;3.77;;;3.30;;
3004;SDS011;1512;51.486;6.610;2022-08-02T20:54:36;4.20;;;3.00;;
3004;SDS011;1512;51.486;6.610;2022-08-02T20:58:45;2.83;;;2.57;;
3004;SDS011;1512;51.486;6.610;2022-08-02T21:02:55;3.60;;;2.83;;
3004;SDS011;1512;51.486;6.610;2022-08-02T21:07:05;3.27;;;2.40;;
3004;SDS011;1512;51.486;6.610;2022-08-02T21:11:15;4.00;;;2.53;;
3004;SDS011;1512;51.486;6.610;2022-08-02T21:15:28;3.57;;;2.80;;
3004;SDS011;1512;51.486;6.610;2022-08-02T21:19:38;2.90;;;2.60;;
3004;SDS011;1512;51.486;6.610;2022-08-02T21:23:48;2.77;;;2.47;;
3004;SDS011;1512;51.486;6.610;2022-08-02T21:27:59;3.93;;;3.03;;
3004;SDS011;1512;51.486;6.610;2022-08-02T21:32:08;2.83;;;2.53;;
3004;SDS011;1512;51.486;6.610;2022-08-02T21:36:16;4.23;;;3.20;;
3004;SDS011;1512;51.486;6.610;2022-08-02T21:40:25;3.90;;;2.63;;
3004;SDS011;1512;51.486;6.610;2022-08-02T21:44:41;3.30;;;3.00;;
3004;SDS011;1512;51.486;6.610;2022-08-02T21:48:52;4.20;;;3.87;;
3004;SDS011;1512;51.486;6.610;2022-08-02T21:53:02;3.43;;;2.80;;
3004;SDS011;1512;51.486;6.610;2022-08-02T21:57:12;3.37;;;3.00;;
3004;SDS011;1512;51.486;6.610;2022-08-02T22:01:22;3.20;;;2.90;;
3004;SDS011;1512;51.486;6.610;2022-08-02T22:05:33;3.30;;;3.00;;
3004;SDS011;1512;51.486;6.610;2022-08-02T22:09:43;3.30;;;2.50;;
3004;SDS011;1512;51.486;6.610;2022-08-02T22:13:51;3.27;;;2.87;;
3004;SDS011;1512;51.486;6.610;2022-08-02T22:18:01;5.03;;;3.20;;
3004;SDS011;1512;51.486;6.610;2022-08-02T22:22:09;3.50;;;3.10;;
3004;SDS011;1512;51.486;6.610;2022-08-02T22:26:18;4.30;;;3.40;;
3004;SDS011;1512;51.486;6.610;2022-08-02T22:30:29;4.60;;;4.20;;
3004;SDS011;1512;51.486;6.610;2022-08-02T22:34:37;3.40;;;3.00;;
3004;SDS011;1512;51.486;6.610;2022-08-02T22:38:47;4.00;;;3.50;;
3004;SDS011;1512;51.486;6.610;2022-08-02T22:42:56;3.50;;;3.20;;
3004;SDS011;1512;51.486;6.610;2022-08-02T22:47:05;4.27;;;3.73;;
3004;SDS011;1512;51.486;6.610;2022-08-02T22:51:15;3.47;;;2.67;;
3004;SDS011;1512;51.486;6.610;2022-08-02T22:55:25;4.70;;;3.80;;
3004;SDS011;1512;51.486;6.610;2022-08-02T23:04:03;3.70;;;3.13;;
3004;SDS011;1512;51.486;6.610;2022-08-02T23:08:12;3.70;;;3.13;;
3004;SDS011;1512;51.486;6.610;2022-08-02T23:12:21;3.27;;;2.93;;
3004;SDS011;1512;51.486;6.610;2022-08-02T23:16:30;5.80;;;4.07;;
3004;SDS011;1512;51.486;6.610;2022-08-02T23:20:57;3.23;;;2.90;;
3004;SDS011;1512;51.486;6.610;2022-08-02T23:25:06;4.17;;;3.70;;
3004;SDS011;1512;51.486;6.610;2022-08-02T23:29:15;4.67;;;3.30;;
3004;SDS011;1512;51.486;6.610;2022-08-02T23:33:26;3.90;;;3.50;;
3004;SDS011;1512;51.486;6.610;2022-08-02T23:37:34;8.20;;;3.93;;
3004;SDS011;1512;51.486;6.610;2022-08-02T23:41:45;6.90;;;3.80;;
3004;SDS011;1512;51.486;6.610;2022-08-02T23:46:01;4.57;;;3.30;;
3004;SDS011;1512;51.486;6.610;2022-08-02T23:50:10;3.83;;;2.83;;
3004;SDS011;1512;51.486;6.610;2022-08-02T23:54:19;5.50;;;3.40;;
3004;SDS011;1512;51.486;6.610;2022-08-02T23:58:28;4.83;;;4.00;;
